Time;durP1;ratioP1;P1;durP2;ratioP2;P2;SDS_P1;SDS_P2;PMS_P1;PMS_P2;Temp;Humidity;BMP_temperature;BMP_pressure;BME280_temperature;BME280_humidity;BME280_pressure;Samples;Min_cycle;Max_cycle;Signal;HPM_P1;HPM_P2
2022/07/14 00:02:07;;;;;;;0.40;0.40;;;19.80;99.90;;;;;;5010949;28;20210;-75
2022/07/14 00:04:57;;;;;;;0.40;0.40;;;19.70;99.90;;;;;;5011913;28;20677;-73
2022/07/14 00:07:45;;;;;;;0.40;0.40;;;19.70;99.90;;;;;;5010919;28;20649;-75
2022/07/14 00:10:33;;;;;;;0.65;0.65;;;19.70;99.90;;;;;;5010816;28;20232;-72
2022/07/14 00:13:21;;;;;;;0.43;0.43;;;19.60;99.90;;;;;;5012645;28;20598;-74
2022/07/14 00:16:09;;;;;;;0.40;0.40;;;19.50;99.90;;;;;;5015075;28;20218;-75
2022/07/14 00:18:57;;;;;;;0.40;0.40;;;19.40;99.90;;;;;;5014713;28;20225;-73
2022/07/14 00:21:47;;;;;;;0.40;0.40;;;19.40;99.90;;;;;;5014995;28;20214;-73
2022/07/14 00:24:36;;;;;;;1.20;1.20;;;19.30;99.90;;;;;;5014455;28;20612;-73
2022/07/14 00:27:24;;;;;;;1.02;1.02;;;19.30;99.90;;;;;;5015159;28;20199;-77
2022/07/14 00:30:12;;;;;;;0.50;0.50;;;19.30;99.90;;;;;;5014868;28;20203;-77
2022/07/14 00:33:00;;;;;;;0.50;0.50;;;19.20;99.90;;;;;;5014570;28;20235;-74
2022/07/14 00:35:48;;;;;;;0.40;0.40;;;19.10;99.90;;;;;;5014848;28;20679;-72
2022/07/14 00:38:38;;;;;;;0.60;0.60;;;19.10;99.90;;;;;;5014859;28;20214;-74
2022/07/14 00:41:26;;;;;;;1.30;0.93;;;19.00;99.90;;;;;;5014480;28;20202;-73
2022/07/14 00:44:14;;;;;;;0.40;0.40;;;19.00;99.90;;;;;;5014781;28;20218;-74
2022/07/14 00:47:02;;;;;;;0.50;0.50;;;19.00;99.90;;;;;;5013517;28;20198;-72
2022/07/14 00:49:53;;;;;;;0.68;0.68;;;18.90;99.90;;;;;;5014384;28;20206;-71
2022/07/14 00:52:43;;;;;;;1.15;1.05;;;18.90;99.90;;;;;;5052895;22;20764;-69
2022/07/14 00:55:33;;;;;;;0.95;0.75;;;18.90;99.90;;;;;;5055973;28;20197;-70
2022/07/14 00:58:21;;;;;;;0.40;0.40;;;18.80;99.90;;;;;;5055282;28;20271;-70
2022/07/14 01:01:09;;;;;;;0.50;0.50;;;18.90;99.90;;;;;;5055858;28;20210;-70
2022/07/14 01:03:58;;;;;;;0.45;0.45;;;18.80;99.90;;;;;;5073635;28;20229;-70
2022/07/14 01:06:46;;;;;;;0.40;0.40;;;18.80;99.90;;;;;;5077079;28;20207;-73
2022/07/14 01:09:34;;;;;;;0.98;0.88;;;18.90;99.90;;;;;;5080756;28;20197;-70
2022/07/14 01:12:24;;;;;;;0.47;0.47;;;18.70;99.90;;;;;;5078218;28;20220;-70
2022/07/14 01:15:13;;;;;;;0.40;0.40;;;18.80;99.90;;;;;;5078315;28;20203;-72
2022/07/14 01:18:03;;;;;;;1.17;1.08;;;18.80;99.90;;;;;;5077837;28;20263;-70
2022/07/14 01:20:51;;;;;;;0.43;0.43;;;18.70;99.90;;;;;;5082052;28;20197;-70
2022/07/14 01:23:41;;;;;;;0.77;0.70;;;18.80;99.90;;;;;;5078908;28;20273;-71
2022/07/14 01:26:29;;;;;;;1.05;0.65;;;18.60;99.90;;;;;;5075937;28;20204;-70
2022/07/14 01:29:17;;;;;;;0.60;0.60;;;18.60;99.90;;;;;;5077265;28;20246;-70
2022/07/14 01:32:06;;;;;;;0.90;0.90;;;18.60;99.90;;;;;;5079999;28;20196;-70
2022/07/14 01:34:54;;;;;;;0.90;0.90;;;18.60;99.90;;;;;;5084705;28;20211;-70
2022/07/14 01:37:42;;;;;;;1.05;0.95;;;18.50;99.90;;;;;;5085306;28;20204;-69
2022/07/14 01:40:32;;;;;;;0.98;0.98;;;18.40;99.90;;;;;;5087971;28;20212;-68
2022/07/14 01:43:20;;;;;;;0.50;0.50;;;18.30;99.90;;;;;;5084703;28;20251;-70
2022/07/14 01:46:08;;;;;;;0.68;0.68;;;18.30;99.90;;;;;;5086911;28;20200;-69
2022/07/14 01:48:56;;;;;;;0.80;0.80;;;18.20;99.90;;;;;;5089450;28;20197;-70
2022/07/14 01:51:45;;;;;;;1.10;1.05;;;18.20;99.90;;;;;;5089861;28;20208;-70
2022/07/14 01:54:33;;;;;;;1.88;1.27;;;18.10;99.90;;;;;;5087797;28;20280;-69
2022/07/14 01:57:23;;;;;;;0.40;0.40;;;18.10;99.90;;;;;;5088704;28;20208;-69
2022/07/14 02:00:12;;;;;;;0.40;0.40;;;18.00;99.90;;;;;;5086922;28;20220;-70
2022/07/14 02:03:00;;;;;;;0.60;0.60;;;17.90;99.90;;;;;;5087824;28;20251;-70
2022/07/14 02:05:48;;;;;;;1.65;1.02;;;17.80;99.90;;;;;;5087413;28;20189;-69
2022/07/14 02:08:36;;;;;;;0.50;0.50;;;17.70;99.90;;;;;;5087144;28;20227;-70
2022/07/14 02:14:33;;;;;;;1.05;0.95;;;17.60;99.90;;;;;;5074712;28;20211;-70
2022/07/14 02:17:21;;;;;;;1.63;0.90;;;17.50;99.90;;;;;;5073768;28;20201;-70
2022/07/14 02:20:10;;;;;;;0.88;0.70;;;17.40;99.90;;;;;;5073481;28;20223;-70
2022/07/14 02:22:58;;;;;;;0.40;0.40;;;17.30;99.90;;;;;;5073846;28;20216;-68
2022/07/14 02:25:47;;;;;;;0.65;0.65;;;17.20;99.90;;;;;;5074203;28;20212;-70
2022/07/14 02:28:35;;;;;;;1.85;1.05;;;17.10;99.90;;;;;;5073704;28;20208;-70
2022/07/14 02:31:24;;;;;;;0.43;0.43;;;17.10;99.90;;;;;;5073898;28;20692;-70
2022/07/14 02:34:13;;;;;;;0.45;0.45;;;17.00;99.90;;;;;;5074180;28;20228;-70
2022/07/14 02:37:01;;;;;;;0.45;0.45;;;16.90;99.90;;;;;;5072474;28;20204;-70
2022/07/14 02:39:49;;;;;;;1.33;0.75;;;16.80;99.90;;;;;;5073863;28;20220;-70
2022/07/14 02:42:37;;;;;;;0.90;0.90;;;16.60;99.90;;;;;;5073306;28;20607;-70
2022/07/14 02:45:26;;;;;;;0.60;0.60;;;16.70;99.90;;;;;;5073814;28;20201;-70
2022/07/14 02:48:15;;;;;;;0.75;0.75;;;16.60;99.90;;;;;;5073303;28;20197;-70
2022/07/14 02:51:05;;;;;;;0.60;0.60;;;16.60;99.90;;;;;;5073084;28;20201;-70
2022/07/14 02:53:54;;;;;;;0.57;0.57;;;16.50;99.90;;;;;;5073584;28;20228;-68
2022/07/14 02:56:43;;;;;;;0.40;0.40;;;16.40;99.90;;;;;;5073131;28;20252;-69
2022/07/14 02:59:31;;;;;;;0.40;0.40;;;16.40;99.90;;;;;;5071794;28;20213;-70
2022/07/14 03:02:19;;;;;;;1.85;0.60;;;16.30;99.90;;;;;;5072661;28;20809;-70
2022/07/14 03:05:09;;;;;;;0.40;0.40;;;16.20;99.90;;;;;;5073538;28;20196;-68
2022/07/14 03:07:57;;;;;;;0.40;0.40;;;16.10;99.90;;;;;;5072633;28;20695;-70
2022/07/14 03:10:45;;;;;;;0.40;0.40;;;16.10;99.90;;;;;;5073172;28;20196;-70
2022/07/14 03:13:33;;;;;;;0.40;0.40;;;16.00;99.90;;;;;;5072725;28;20224;-70
2022/07/14 03:16:21;;;;;;;1.33;1.23;;;16.00;99.90;;;;;;5072579;28;20203;-69
2022/07/14 03:19:10;;;;;;;0.60;0.60;;;15.90;99.90;;;;;;5072499;28;20272;-69
2022/07/14 03:21:59;;;;;;;0.40;0.40;;;15.90;99.90;;;;;;5072694;28;20200;-68
2022/07/14 03:24:47;;;;;;;0.55;0.55;;;15.90;99.90;;;;;;5073114;28;20708;-70
2022/07/14 03:27:36;;;;;;;0.40;0.40;;;15.90;99.90;;;;;;5074039;28;20197;-70
2022/07/14 03:30:24;;;;;;;0.40;0.40;;;15.90;99.90;;;;;;5072923;28;20193;-69
2022/07/14 03:33:12;;;;;;;0.60;0.60;;;15.90;99.90;;;;;;5073065;28;20220;-69
2022/07/14 03:36:02;;;;;;;0.40;0.40;;;15.90;99.90;;;;;;5072128;28;20193;-70
2022/07/14 03:38:52;;;;;;;0.70;0.70;;;15.90;99.90;;;;;;5072723;28;20208;-70
2022/07/14 03:41:40;;;;;;;0.40;0.40;;;15.90;99.90;;;;;;5073720;28;20196;-70
2022/07/14 03:44:28;;;;;;;0.60;0.60;;;15.90;99.90;;;;;;5072669;28;20677;-69
2022/07/14 03:47:16;;;;;;;0.52;0.52;;;15.80;99.90;;;;;;5071964;28;20213;-69
2022/07/14 03:50:06;;;;;;;0.80;0.80;;;15.70;99.90;;;;;;5076764;28;20215;-69
2022/07/14 03:52:54;;;;;;;0.40;0.40;;;15.70;99.90;;;;;;5075898;28;20224;-70
2022/07/14 03:55:44;;;;;;;0.40;0.40;;;15.60;99.90;;;;;;5075983;28;20696;-70
2022/07/14 03:58:39;;;;;;;0.40;0.40;;;15.50;99.90;;;;;;5076286;28;20708;-69
2022/07/14 04:01:27;;;;;;;0.40;0.40;;;15.50;99.90;;;;;;5075942;28;20203;-70
2022/07/14 04:04:15;;;;;;;0.40;0.40;;;15.40;99.90;;;;;;5076026;28;20252;-69
2022/07/14 04:07:03;;;;;;;0.50;0.50;;;15.30;99.90;;;;;;5076817;28;20565;-69
2022/07/14 04:09:52;;;;;;;0.40;0.40;;;15.30;99.90;;;;;;5076637;28;20193;-70
2022/07/14 04:12:41;;;;;;;0.40;0.40;;;15.20;99.90;;;;;;5076574;28;20220;-69
2022/07/14 04:15:30;;;;;;;0.40;0.40;;;15.20;99.90;;;;;;5077509;28;20197;-69
2022/07/14 04:18:18;;;;;;;0.60;0.60;;;15.20;99.90;;;;;;5076738;28;20211;-70
2022/07/14 04:21:09;;;;;;;0.40;0.40;;;15.10;99.90;;;;;;5076238;28;20299;-70
2022/07/14 04:23:57;;;;;;;0.40;0.40;;;15.10;99.90;;;;;;5076157;28;20624;-69
2022/07/14 04:26:46;;;;;;;0.40;0.40;;;15.10;99.90;;;;;;5076351;28;20201;-68
2022/07/14 04:29:35;;;;;;;0.40;0.40;;;15.10;99.90;;;;;;5075630;28;20201;-69
2022/07/14 04:32:23;;;;;;;0.50;0.50;;;15.20;99.90;;;;;;5076684;28;20224;-70
2022/07/14 04:35:12;;;;;;;0.57;0.57;;;15.20;99.90;;;;;;5076546;28;20233;-70
2022/07/14 04:38:00;;;;;;;0.40;0.40;;;15.30;99.90;;;;;;5076241;28;20207;-70
2022/07/14 04:40:49;;;;;;;0.63;0.63;;;15.20;99.90;;;;;;5075845;28;20220;-69
2022/07/14 04:43:37;;;;;;;0.50;0.50;;;15.20;99.90;;;;;;5076520;28;20220;-69
2022/07/14 04:46:26;;;;;;;1.65;0.85;;;15.20;99.90;;;;;;5076724;28;20196;-70
2022/07/14 04:52:21;;;;;;;0.50;0.50;;;15.20;99.90;;;;;;5075407;28;20228;-69
2022/07/14 04:55:09;;;;;;;0.40;0.40;;;15.30;99.90;;;;;;5075878;28;20201;-70
2022/07/14 04:57:57;;;;;;;0.40;0.40;;;15.30;99.90;;;;;;5081251;28;20193;-67
2022/07/14 05:00:45;;;;;;;0.50;0.50;;;15.30;99.90;;;;;;5096278;28;20303;-68
2022/07/14 05:03:36;;;;;;;0.50;0.50;;;15.40;99.90;;;;;;5096079;28;20212;-70
2022/07/14 05:06:24;;;;;;;0.50;0.50;;;15.40;99.90;;;;;;5095875;28;20419;-69
2022/07/14 05:09:14;;;;;;;1.03;0.47;;;15.40;99.90;;;;;;5094224;28;20223;-67
2022/07/14 05:12:03;;;;;;;4.27;2.40;;;15.40;99.90;;;;;;5095686;28;20226;-66
2022/07/14 05:14:51;;;;;;;31.90;1.40;;;15.30;99.90;;;;;;5079853;28;20200;-68
2022/07/14 05:17:39;;;;;;;1.90;0.67;;;15.40;99.90;;;;;;5089834;28;20204;-68
2022/07/14 05:20:29;;;;;;;0.40;0.40;;;15.40;99.90;;;;;;5113366;28;20238;-67
2022/07/14 05:23:17;;;;;;;0.50;0.50;;;15.40;99.90;;;;;;5112334;28;20224;-69
2022/07/14 05:26:10;;;;;;;0.40;0.40;;;15.30;99.90;;;;;;5101608;28;20204;-68
2022/07/14 05:28:58;;;;;;;0.40;0.40;;;15.30;99.90;;;;;;5096193;28;20200;-67
2022/07/14 05:31:47;;;;;;;0.50;0.50;;;15.40;99.90;;;;;;5094532;28;20204;-69
2022/07/14 05:34:41;;;;;;;0.40;0.40;;;15.50;99.90;;;;;;5094680;28;20204;-70
2022/07/14 05:37:31;;;;;;;0.60;0.60;;;15.50;99.90;;;;;;5096064;28;20208;-69
2022/07/14 05:40:19;;;;;;;0.50;0.50;;;15.60;99.90;;;;;;5095446;28;20219;-68
2022/07/14 05:43:07;;;;;;;2.10;1.43;;;15.60;99.90;;;;;;5095285;28;20224;-70
2022/07/14 05:45:55;;;;;;;0.40;0.40;;;15.60;99.90;;;;;;5094718;28;20227;-70
2022/07/14 05:48:44;;;;;;;4.20;1.33;;;15.60;99.90;;;;;;5095458;28;20445;-70
2022/07/14 05:51:32;;;;;;;0.60;0.60;;;15.60;99.90;;;;;;5092987;28;20223;-69
2022/07/14 05:54:21;;;;;;;0.40;0.40;;;15.70;99.90;;;;;;5095504;28;20258;-67
2022/07/14 05:57:09;;;;;;;0.40;0.40;;;15.70;99.90;;;;;;5075373;28;20666;-70
2022/07/14 05:59:57;;;;;;;0.40;0.40;;;15.80;99.90;;;;;;5074358;28;20608;-70
2022/07/14 06:02:46;;;;;;;0.40;0.40;;;15.90;99.90;;;;;;5073119;28;20221;-69
2022/07/14 06:05:35;;;;;;;0.40;0.40;;;15.90;99.90;;;;;;5074879;28;20228;-70
2022/07/14 06:08:23;;;;;;;0.40;0.40;;;16.00;99.90;;;;;;5074601;28;20208;-70
2022/07/14 06:11:12;;;;;;;0.77;0.73;;;16.00;99.90;;;;;;5073819;28;20197;-70
2022/07/14 06:14:01;;;;;;;0.60;0.60;;;16.00;99.90;;;;;;5075188;28;20244;-69
2022/07/14 06:16:51;;;;;;;0.50;0.50;;;16.00;99.90;;;;;;5074939;28;20213;-69
2022/07/14 06:19:39;;;;;;;0.80;0.80;;;16.10;99.90;;;;;;5074412;28;20200;-70
2022/07/14 06:22:27;;;;;;;0.60;0.50;;;16.10;99.90;;;;;;5073874;28;20599;-70
2022/07/14 06:25:16;;;;;;;0.40;0.40;;;16.10;99.90;;;;;;5074791;28;20220;-69
2022/07/14 06:28:06;;;;;;;0.50;0.50;;;16.20;99.90;;;;;;5074040;28;20212;-70
2022/07/14 06:30:55;;;;;;;0.40;0.40;;;16.30;99.90;;;;;;5072875;28;20211;-71
2022/07/14 06:33:43;;;;;;;0.40;0.40;;;16.40;99.90;;;;;;5073448;28;20212;-71
2022/07/14 06:36:32;;;;;;;0.40;0.40;;;16.50;99.90;;;;;;5073193;28;20205;-71
2022/07/14 06:39:21;;;;;;;0.40;0.40;;;16.50;99.90;;;;;;5079750;28;20211;-71
2022/07/14 06:42:09;;;;;;;0.40;0.40;;;16.30;99.90;;;;;;5093858;28;20298;-70
2022/07/14 06:44:59;;;;;;;0.40;0.40;;;16.40;99.90;;;;;;5094006;28;20273;-70
2022/07/14 06:47:47;;;;;;;0.40;0.40;;;16.50;99.90;;;;;;5088708;28;20203;-70
2022/07/14 06:50:35;;;;;;;0.40;0.40;;;16.60;99.90;;;;;;5093710;28;20199;-71
2022/07/14 06:53:24;;;;;;;0.40;0.40;;;16.70;99.90;;;;;;5098375;22;20237;-71
2022/07/14 06:56:12;;;;;;;0.40;0.40;;;17.00;99.90;;;;;;5052560;28;20197;-74
2022/07/14 06:59:00;;;;;;;0.50;0.50;;;17.10;99.90;;;;;;5050226;28;20281;-74
2022/07/14 07:01:50;;;;;;;0.50;0.50;;;17.30;99.90;;;;;;5049267;28;20217;-74
2022/07/14 07:04:38;;;;;;;0.50;0.50;;;17.50;99.90;;;;;;5025916;28;20198;-74
2022/07/14 07:07:26;;;;;;;0.70;0.70;;;17.80;99.90;;;;;;5021810;28;20628;-76
2022/07/14 07:10:14;;;;;;;0.65;0.65;;;18.10;99.90;;;;;;5030616;28;20590;-75
2022/07/14 07:13:02;;;;;;;0.40;0.40;;;18.00;99.90;;;;;;5030138;28;20214;-75
2022/07/14 07:15:50;;;;;;;1.05;0.50;;;18.00;99.90;;;;;;5013140;28;20197;-74
2022/07/14 07:18:40;;;;;;;8.95;1.00;;;17.80;99.90;;;;;;5011666;28;20659;-73
2022/07/14 07:21:28;;;;;;;0.45;0.45;;;17.60;99.90;;;;;;5011956;28;20310;-71
2022/07/14 07:24:16;;;;;;;0.50;0.50;;;17.70;99.90;;;;;;5012030;28;20222;-71
2022/07/14 07:27:05;;;;;;;0.73;0.73;;;17.70;99.90;;;;;;5026217;28;20221;-72
2022/07/14 07:29:53;;;;;;;0.50;0.50;;;17.70;99.90;;;;;;5040215;28;20208;-73
2022/07/14 07:32:41;;;;;;;0.43;0.43;;;17.50;99.90;;;;;;5035879;28;20286;-75
2022/07/14 07:35:31;;;;;;;0.50;0.50;;;17.70;99.90;;;;;;5026963;28;20210;-73
2022/07/14 07:38:27;;;;;;;0.50;0.50;;;17.90;99.90;;;;;;5016864;28;20206;-73
2022/07/14 07:41:15;;;;;;;0.50;0.50;;;17.70;99.90;;;;;;5033082;28;20595;-72
2022/07/14 07:44:04;;;;;;;0.43;0.43;;;17.60;99.90;;;;;;5022481;28;20729;-73
2022/07/14 07:46:52;;;;;;;0.50;0.50;;;17.60;99.90;;;;;;5037247;28;20198;-73
2022/07/14 07:49:41;;;;;;;0.50;0.50;;;17.80;99.90;;;;;;5031458;28;20592;-72
2022/07/14 07:52:30;;;;;;;0.50;0.50;;;17.80;99.90;;;;;;5038331;28;20198;-73
2022/07/14 07:55:19;;;;;;;0.60;0.60;;;17.80;99.90;;;;;;5034858;28;20559;-74
2022/07/14 07:58:14;;;;;;;0.50;0.50;;;17.70;99.90;;;;;;5038103;28;20202;-74
2022/07/14 08:01:03;;;;;;;0.50;0.50;;;17.70;99.90;;;;;;5030732;28;20626;-73
2022/07/14 08:03:52;;;;;;;0.50;0.50;;;17.70;99.90;;;;;;5038711;28;20238;-73
2022/07/14 08:06:40;;;;;;;0.40;0.40;;;17.70;99.90;;;;;;5050233;28;20214;-73
2022/07/14 08:09:30;;;;;;;0.50;0.50;;;17.80;99.90;;;;;;5039501;28;20193;-72
2022/07/14 08:12:18;;;;;;;0.50;0.50;;;17.90;99.90;;;;;;5036460;28;20906;-74
2022/07/14 08:15:07;;;;;;;0.40;0.40;;;18.00;99.90;;;;;;5036874;28;20205;-73
2022/07/14 08:17:55;;;;;;;0.40;0.40;;;18.10;99.90;;;;;;5041955;28;20204;-74
2022/07/14 08:20:44;;;;;;;0.47;0.47;;;18.20;99.90;;;;;;5032633;28;20213;-74
2022/07/14 08:23:32;;;;;;;0.40;0.40;;;18.20;99.90;;;;;;5029604;28;20240;-72
2022/07/14 08:26:22;;;;;;;0.50;0.50;;;18.30;99.90;;;;;;5035309;28;20202;-72
2022/07/14 08:29:10;;;;;;;0.40;0.40;;;18.30;99.90;;;;;;5034549;28;20257;-74
2022/07/14 08:31:58;;;;;;;0.45;0.45;;;18.30;99.90;;;;;;5033411;28;20206;-74
2022/07/14 08:34:47;;;;;;;0.40;0.40;;;18.40;99.90;;;;;;5038624;28;20208;-74
2022/07/14 08:37:35;;;;;;;0.40;0.40;;;18.40;99.90;;;;;;5037328;28;20206;-74
2022/07/14 08:40:26;;;;;;;0.50;0.50;;;18.40;99.90;;;;;;5036731;28;20710;-72
2022/07/14 08:43:17;;;;;;;0.80;0.80;;;18.40;99.90;;;;;;5029414;28;20284;-72
2022/07/14 08:46:05;;;;;;;0.50;0.50;;;18.40;99.90;;;;;;5036135;28;20657;-71
2022/07/14 08:48:54;;;;;;;0.50;0.50;;;18.50;99.90;;;;;;5041598;28;20205;-73
2022/07/14 08:51:44;;;;;;;4.13;1.77;;;18.50;99.90;;;;;;5032818;28;20563;-73
2022/07/14 08:54:33;;;;;;;0.40;0.40;;;18.60;99.90;;;;;;5024335;28;20234;-75
2022/07/14 08:57:22;;;;;;;0.40;0.40;;;18.50;99.90;;;;;;5034091;28;20206;-74
2022/07/14 09:00:14;;;;;;;0.50;0.50;;;18.60;99.90;;;;;;5032564;28;20217;-75
2022/07/14 09:03:02;;;;;;;0.50;0.50;;;18.70;99.90;;;;;;5031684;28;20711;-74
2022/07/14 09:06:05;;;;;;;0.60;0.60;;;18.80;99.90;;;;;;5031704;28;20198;-74
2022/07/14 09:08:55;;;;;;;4.10;0.60;;;19.00;99.90;;;;;;5031853;28;20670;-75
2022/07/14 09:11:54;;;;;;;0.40;0.40;;;19.00;99.90;;;;;;5036959;28;20194;-72
2022/07/14 09:18:08;;;;;;;0.40;0.40;;;18.80;99.90;;;;;;5045211;28;20213;-72
2022/07/14 09:20:58;;;;;;;1.83;1.77;;;18.90;99.90;;;;;;5039452;28;20206;-75
2022/07/14 09:23:47;;;;;;;0.40;0.40;;;19.00;99.90;;;;;;5040958;28;20244;-75
2022/07/14 09:26:43;;;;;;;0.40;0.40;;;19.10;99.90;;;;;;5037523;28;20203;-74
2022/07/14 09:29:31;;;;;;;0.73;0.52;;;19.20;99.90;;;;;;5035990;28;20205;-71
2022/07/14 09:32:19;;;;;;;0.50;0.50;;;19.20;99.90;;;;;;5033417;28;20289;-75
2022/07/14 09:35:11;;;;;;;0.60;0.60;;;19.30;99.90;;;;;;5031538;28;20206;-71
2022/07/14 09:37:59;;;;;;;0.60;0.50;;;19.30;99.90;;;;;;5030811;28;20687;-70
2022/07/14 09:40:48;;;;;;;0.40;0.40;;;19.30;99.90;;;;;;5030394;28;20787;-71
2022/07/14 09:43:36;;;;;;;0.45;0.45;;;19.40;99.90;;;;;;5035043;28;20222;-72
2022/07/14 09:46:44;;;;;;;0.50;0.50;;;19.50;99.90;;;;;;5033973;28;20573;-73
2022/07/14 09:49:33;;;;;;;0.40;0.40;;;19.60;99.90;;;;;;5042081;28;20198;-74
2022/07/14 09:52:38;;;;;;;0.40;0.40;;;19.60;99.90;;;;;;5032751;28;20307;-73
2022/07/14 09:55:26;;;;;;;0.68;0.68;;;19.70;99.90;;;;;;5030244;28;20206;-73
2022/07/14 09:58:14;;;;;;;0.45;0.45;;;19.80;99.90;;;;;;5031769;28;20225;-72
2022/07/14 10:01:05;;;;;;;0.40;0.40;;;20.00;99.90;;;;;;5031000;28;20202;-73
2022/07/14 10:03:55;;;;;;;0.50;0.50;;;20.10;99.90;;;;;;5025218;28;20233;-75
2022/07/14 10:06:44;;;;;;;0.50;0.50;;;20.00;99.90;;;;;;5035120;28;20201;-72
2022/07/14 10:09:37;;;;;;;0.50;0.50;;;20.00;98.90;;;;;;5040675;28;20299;-72
2022/07/14 10:12:27;;;;;;;0.50;0.50;;;20.10;98.90;;;;;;5041091;28;20198;-74
2022/07/14 10:15:15;;;;;;;0.60;0.60;;;20.20;97.70;;;;;;5031150;28;20251;-72
2022/07/14 10:18:03;;;;;;;0.50;0.50;;;20.20;97.30;;;;;;5034719;28;20209;-74
2022/07/14 10:20:53;;;;;;;0.50;0.50;;;20.30;96.70;;;;;;5035496;28;20216;-73
2022/07/14 10:23:42;;;;;;;0.40;0.40;;;20.20;97.60;;;;;;5049887;28;20238;-72
2022/07/14 10:26:32;;;;;;;0.52;0.52;;;20.20;97.40;;;;;;5039710;28;20189;-73
2022/07/14 10:29:20;;;;;;;0.50;0.50;;;20.20;96.60;;;;;;5034954;28;20198;-75
2022/07/14 10:32:24;;;;;;;0.60;0.50;;;20.20;95.70;;;;;;5040466;28;20686;-72
2022/07/14 10:35:27;;;;;;;0.40;0.40;;;20.30;94.90;;;;;;5039283;28;20280;-75
2022/07/14 10:38:34;;;;;;;0.60;0.60;;;20.40;94.50;;;;;;5038559;28;20208;-74
2022/07/14 10:41:43;;;;;;;0.50;0.50;;;20.50;94.40;;;;;;5032472;28;20210;-71
2022/07/14 10:44:35;;;;;;;0.40;0.40;;;20.50;94.30;;;;;;5031705;28;20293;-73
2022/07/14 10:47:25;;;;;;;0.40;0.40;;;20.50;93.50;;;;;;5032198;28;20233;-70
2022/07/14 10:50:21;;;;;;;0.40;0.40;;;20.50;93.40;;;;;;5014519;28;20574;-74
2022/07/14 10:53:09;;;;;;;0.50;0.50;;;20.60;93.70;;;;;;5031240;28;20226;-75
2022/07/14 10:55:57;;;;;;;0.40;0.40;;;20.80;93.20;;;;;;5030737;28;20202;-77
2022/07/14 10:58:46;;;;;;;0.43;0.43;;;20.80;93.00;;;;;;5029038;28;20209;-79
2022/07/14 11:01:35;;;;;;;0.40;0.40;;;20.80;93.00;;;;;;5028886;28;20202;-71
2022/07/14 11:04:57;;;;;;;0.40;0.40;;;20.90;92.70;;;;;;5029247;28;20237;-73
2022/07/14 11:07:50;;;;;;;0.47;0.47;;;20.90;93.20;;;;;;5036764;28;20678;-74
2022/07/14 11:11:08;;;;;;;0.55;0.55;;;20.90;92.30;;;;;;5030481;28;20236;-76
2022/07/14 11:14:10;;;;;;;0.40;0.40;;;21.00;91.80;;;;;;5031238;28;20220;-74
2022/07/14 11:17:00;;;;;;;0.40;0.40;;;20.90;90.80;;;;;;5029623;28;20384;-74
2022/07/14 11:19:52;;;;;;;0.40;0.40;;;21.10;90.20;;;;;;5028971;28;20214;-74
2022/07/14 11:22:41;;;;;;;0.40;0.40;;;21.20;90.80;;;;;;5027540;28;20226;-73
2022/07/14 11:25:30;;;;;;;0.40;0.40;;;21.20;90.00;;;;;;5031271;28;20236;-74
2022/07/14 11:28:45;;;;;;;0.40;0.40;;;21.20;89.70;;;;;;5030225;28;20206;-75
2022/07/14 11:31:44;;;;;;;0.40;0.40;;;21.30;90.00;;;;;;5032461;28;20635;-73
2022/07/14 11:37:58;;;;;;;0.50;0.50;;;21.50;88.10;;;;;;4962897;28;20692;-74
2022/07/14 11:40:50;;;;;;;0.68;0.50;;;21.60;86.00;;;;;;5024479;28;20349;-77
2022/07/14 11:43:48;;;;;;;0.40;0.40;;;21.60;84.50;;;;;;5020562;28;20284;-73
2022/07/14 11:46:58;;;;;;;0.50;0.50;;;21.60;84.70;;;;;;5011034;28;20210;-74
2022/07/14 11:49:59;;;;;;;0.40;0.40;;;21.50;85.50;;;;;;5022398;28;20779;-74
2022/07/14 11:52:58;;;;;;;0.40;0.40;;;21.50;83.80;;;;;;5028160;28;20240;-76
2022/07/14 11:55:47;;;;;;;0.40;0.40;;;21.50;85.20;;;;;;5030801;28;20577;-74
2022/07/14 11:58:37;;;;;;;0.40;0.40;;;21.50;85.70;;;;;;5030294;28;20217;-75
2022/07/14 12:01:32;;;;;;;0.50;0.50;;;21.60;83.80;;;;;;5030367;28;20209;-73
2022/07/14 12:04:20;;;;;;;0.50;0.50;;;21.80;86.80;;;;;;5035612;28;20226;-70
2022/07/14 12:07:10;;;;;;;0.40;0.40;;;21.80;86.20;;;;;;5030094;28;20209;-74
2022/07/14 12:09:59;;;;;;;0.40;0.40;;;21.90;84.60;;;;;;5031913;28;20198;-74
2022/07/14 12:12:48;;;;;;;0.40;0.40;;;22.00;82.50;;;;;;5035208;28;20225;-76
2022/07/14 12:15:37;;;;;;;0.75;0.60;;;22.00;82.00;;;;;;5034829;28;20205;-77
2022/07/14 12:18:30;;;;;;;0.40;0.40;;;21.90;79.70;;;;;;5036172;28;20258;-75
2022/07/14 12:21:31;;;;;;;0.40;0.40;;;21.90;78.10;;;;;;5030793;28;20314;-76
2022/07/14 12:24:26;;;;;;;0.50;0.50;;;22.00;79.40;;;;;;5027426;28;20240;-77
2022/07/14 12:27:14;;;;;;;0.50;0.50;;;22.10;75.30;;;;;;5027597;28;20199;-75
2022/07/14 12:30:02;;;;;;;0.40;0.40;;;22.10;75.00;;;;;;5025138;28;20797;-75
2022/07/14 12:32:54;;;;;;;0.40;0.40;;;22.20;76.20;;;;;;5033577;28;20218;-78
2022/07/14 12:35:45;;;;;;;0.40;0.40;;;22.20;73.20;;;;;;5028331;28;20190;-77
2022/07/14 12:38:36;;;;;;;0.50;0.50;;;22.30;76.50;;;;;;5033836;28;20206;-76
2022/07/14 12:41:27;;;;;;;0.50;0.50;;;22.40;74.90;;;;;;5034058;28;20206;-79
2022/07/14 12:44:15;;;;;;;0.40;0.40;;;22.60;74.10;;;;;;5031650;28;20233;-76
2022/07/14 12:47:11;;;;;;;0.40;0.40;;;23.00;74.20;;;;;;5032183;28;20654;-72
2022/07/14 12:50:00;;;;;;;0.40;0.40;;;24.20;73.60;;;;;;5035095;28;20206;-71
2022/07/14 12:52:53;;;;;;;0.40;0.40;;;26.80;71.10;;;;;;5032145;28;20308;-70
2022/07/14 12:55:44;;;;;;;0.40;0.40;;;29.40;63.70;;;;;;5033579;28;20929;-72
2022/07/14 12:58:34;;;;;;;0.40;0.40;;;31.10;57.00;;;;;;5030757;28;20213;-71
2022/07/14 13:01:24;;;;;;;0.40;0.40;;;32.50;52.90;;;;;;5032532;28;20209;-72
2022/07/14 13:04:17;;;;;;;0.43;0.43;;;33.90;51.10;;;;;;5033793;28;20221;-72
2022/07/14 13:07:16;;;;;;;0.40;0.40;;;35.50;47.60;;;;;;5033726;28;20210;-72
2022/07/14 13:10:10;;;;;;;0.50;0.50;;;35.90;46.10;;;;;;5032176;28;20213;-73
2022/07/14 13:12:59;;;;;;;0.40;0.40;;;35.70;45.20;;;;;;5032654;28;20234;-71
2022/07/14 13:15:48;;;;;;;0.50;0.50;;;36.00;44.60;;;;;;5032454;28;20210;-71
2022/07/14 13:18:36;;;;;;;0.45;0.45;;;35.70;43.80;;;;;;5030532;28;20221;-74
2022/07/14 13:21:53;;;;;;;0.50;0.50;;;36.00;43.50;;;;;;5025388;28;20233;-73
2022/07/14 13:24:44;;;;;;;0.50;0.50;;;35.70;43.80;;;;;;5028934;28;20226;-75
2022/07/14 13:27:32;;;;;;;0.40;0.40;;;35.10;43.60;;;;;;5034347;28;20206;-71
2022/07/14 13:30:20;;;;;;;0.40;0.40;;;35.50;44.10;;;;;;5030123;28;20477;-71
2022/07/14 13:33:10;;;;;;;0.43;0.43;;;36.10;43.80;;;;;;5030001;28;20226;-71
2022/07/14 13:36:06;;;;;;;0.40;0.40;;;36.50;42.50;;;;;;5032901;28;20206;-70
2022/07/14 13:38:54;;;;;;;0.45;0.45;;;38.30;40.60;;;;;;5027092;28;20229;-71
2022/07/14 13:41:42;;;;;;;0.40;0.40;;;38.80;39.60;;;;;;5031305;28;20225;-69
2022/07/14 13:44:31;;;;;;;0.40;0.40;;;36.10;40.50;;;;;;5032371;28;20222;-71
2022/07/14 13:47:20;;;;;;;0.40;0.40;;;35.50;42.40;;;;;;5038754;28;20202;-71
2022/07/14 13:53:15;;;;;;;0.40;0.40;;;38.30;40.40;;;;;;5028937;28;20236;-70
2022/07/14 13:56:05;;;;;;;0.45;0.45;;;40.10;39.00;;;;;;5027341;28;20675;-70
2022/07/14 13:58:54;;;;;;;0.60;0.60;;;42.10;36.70;;;;;;5030528;28;20198;-70
2022/07/14 14:01:42;;;;;;;0.40;0.40;;;42.50;35.30;;;;;;5041252;28;20559;-70
2022/07/14 14:04:31;;;;;;;0.50;0.50;;;41.70;35.10;;;;;;5034629;28;20252;-71
2022/07/14 14:07:21;;;;;;;0.50;0.50;;;41.80;34.70;;;;;;5025654;28;20198;-69
2022/07/14 14:10:09;;;;;;;0.50;0.50;;;41.70;34.50;;;;;;5029294;28;20583;-71
2022/07/14 14:12:57;;;;;;;0.50;0.50;;;41.00;35.40;;;;;;5032327;28;20232;-71
2022/07/14 14:15:46;;;;;;;0.50;0.50;;;40.90;35.20;;;;;;5033636;28;20290;-71
2022/07/14 14:18:35;;;;;;;0.50;0.50;;;42.10;34.90;;;;;;5038607;28;20210;-70
2022/07/14 14:21:24;;;;;;;0.50;0.50;;;42.90;34.40;;;;;;5040761;28;20216;-69
2022/07/14 14:24:13;;;;;;;0.50;0.50;;;43.60;33.70;;;;;;5040077;28;20230;-69
2022/07/14 14:27:02;;;;;;;0.50;0.50;;;42.50;33.20;;;;;;5040041;28;20589;-70
2022/07/14 14:29:50;;;;;;;0.50;0.50;;;42.20;33.30;;;;;;5038188;28;20204;-70
2022/07/14 14:32:38;;;;;;;0.50;0.50;;;42.20;31.50;;;;;;5038680;28;20225;-69
2022/07/14 14:35:27;;;;;;;0.50;0.50;;;42.20;31.90;;;;;;5048653;28;20209;-69
2022/07/14 14:38:15;;;;;;;0.50;0.50;;;43.70;30.70;;;;;;5038475;28;20205;-69
2022/07/14 14:41:05;;;;;;;0.50;0.50;;;42.40;30.60;;;;;;5031513;28;20206;-71
2022/07/14 14:43:53;;;;;;;0.50;0.50;;;38.90;32.10;;;;;;5030316;28;20597;-71
2022/07/14 14:46:41;;;;;;;0.50;0.50;;;36.20;34.80;;;;;;5026679;28;20209;-69
2022/07/14 14:49:32;;;;;;;0.50;0.50;;;34.10;37.30;;;;;;5027320;28;20202;-68
2022/07/14 14:52:20;;;;;;;0.50;0.50;;;32.20;38.60;;;;;;5038781;28;20256;-71
2022/07/14 14:55:10;;;;;;;0.60;0.60;;;30.70;40.10;;;;;;5034611;28;20194;-70
2022/07/14 14:58:00;;;;;;;0.50;0.50;;;29.40;41.70;;;;;;5039895;28;20202;-70
2022/07/14 15:00:48;;;;;;;0.50;0.50;;;28.80;43.20;;;;;;5036678;28;20194;-69
2022/07/14 15:03:36;;;;;;;0.45;0.45;;;28.70;43.30;;;;;;5040117;28;20218;-70